Racine, Pennsylvania
Current Conditions -  °F | °C
As of 7:47 AM on Wednesday 22 Oct 2014 (Local Time) from KBVI Reporting Station
Overcast Overcast  
Wind Chill: 40°   Ceiling: 600
Heat Index: 45°   Visibility: 10mi
Dew Point: 45°   Wind: 9mph
Humidity: 100%   Direction: 340°NNW
Pressure: 30.13"   Gusts: NA
Location:  40.7641°N, 80.3864°W
Report Text: KBVI 221147Z 34008KT 10SM OVC006 07/07 A3013
Loading
Personal Weather Stations






























Interactive Weather Map
Tropical Storm Tracking
New forecast layout! Learn more

10-Day Weather Forecast

Advertisements
Track Severe Weather on mobile